sensor_id;sensor_type;location;lat;lon;timestamp;P1;durP1;ratioP1;P2;durP2;ratioP2
5483;SDS011;2764;48.794;8.326;2023-05-23T00:00:44;22.80;;;17.00;;
5483;SDS011;2764;48.794;8.326;2023-05-23T00:01:45;19.17;;;17.17;;
5483;SDS011;2764;48.794;8.326;2023-05-23T00:02:47;19.50;;;17.50;;
5483;SDS011;2764;48.794;8.326;2023-05-23T00:03:50;19.63;;;17.50;;
5483;SDS011;2764;48.794;8.326;2023-05-23T00:04:53;22.93;;;18.90;;
5483;SDS011;2764;48.794;8.326;2023-05-23T00:05:59;20.30;;;18.10;;
5483;SDS011;2764;48.794;8.326;2023-05-23T00:07:04;19.60;;;17.70;;
5483;SDS011;2764;48.794;8.326;2023-05-23T00:08:05;22.10;;;18.73;;
5483;SDS011;2764;48.794;8.326;2023-05-23T00:09:07;22.50;;;17.53;;
5483;SDS011;2764;48.794;8.326;2023-05-23T00:10:09;20.03;;;17.93;;
5483;SDS011;2764;48.794;8.326;2023-05-23T00:11:11;20.67;;;18.00;;
5483;SDS011;2764;48.794;8.326;2023-05-23T00:12:13;22.83;;;17.67;;
5483;SDS011;2764;48.794;8.326;2023-05-23T00:13:15;18.53;;;15.80;;
5483;SDS011;2764;48.794;8.326;2023-05-23T00:14:17;21.60;;;17.67;;
5483;SDS011;2764;48.794;8.326;2023-05-23T00:15:19;18.63;;;16.73;;
5483;SDS011;2764;48.794;8.326;2023-05-23T00:16:21;19.63;;;17.57;;
5483;SDS011;2764;48.794;8.326;2023-05-23T00:17:23;23.27;;;19.50;;
5483;SDS011;2764;48.794;8.326;2023-05-23T00:18:26;22.20;;;18.57;;
5483;SDS011;2764;48.794;8.326;2023-05-23T00:19:27;20.30;;;18.20;;
5483;SDS011;2764;48.794;8.326;2023-05-23T00:20:29;21.27;;;18.83;;
5483;SDS011;2764;48.794;8.326;2023-05-23T00:21:31;25.07;;;18.00;;
5483;SDS011;2764;48.794;8.326;2023-05-23T00:22:33;19.27;;;17.30;;
5483;SDS011;2764;48.794;8.326;2023-05-23T00:23:34;20.27;;;17.50;;
5483;SDS011;2764;48.794;8.326;2023-05-23T00:24:36;20.40;;;18.20;;
5483;SDS011;2764;48.794;8.326;2023-05-23T00:25:38;18.73;;;16.93;;
5483;SDS011;2764;48.794;8.326;2023-05-23T00:26:41;19.07;;;17.07;;
5483;SDS011;2764;48.794;8.326;2023-05-23T00:27:43;21.13;;;18.40;;
5483;SDS011;2764;48.794;8.326;2023-05-23T00:28:45;21.80;;;19.20;;
5483;SDS011;2764;48.794;8.326;2023-05-23T00:29:46;22.00;;;18.83;;
5483;SDS011;2764;48.794;8.326;2023-05-23T00:30:48;19.90;;;17.87;;
5483;SDS011;2764;48.794;8.326;2023-05-23T00:31:50;18.77;;;16.33;;
5483;SDS011;2764;48.794;8.326;2023-05-23T00:32:52;19.50;;;17.40;;
5483;SDS011;2764;48.794;8.326;2023-05-23T00:33:54;19.63;;;17.63;;
5483;SDS011;2764;48.794;8.326;2023-05-23T00:34:56;21.43;;;18.10;;
5483;SDS011;2764;48.794;8.326;2023-05-23T00:35:59;27.03;;;18.10;;
5483;SDS011;2764;48.794;8.326;2023-05-23T00:37:00;23.97;;;19.77;;
5483;SDS011;2764;48.794;8.326;2023-05-23T00:38:02;21.77;;;19.30;;
5483;SDS011;2764;48.794;8.326;2023-05-23T00:39:04;20.67;;;18.47;;
5483;SDS011;2764;48.794;8.326;2023-05-23T00:40:06;20.53;;;17.37;;
5483;SDS011;2764;48.794;8.326;2023-05-23T00:41:08;20.57;;;17.57;;
5483;SDS011;2764;48.794;8.326;2023-05-23T00:42:10;20.50;;;18.30;;
5483;SDS011;2764;48.794;8.326;2023-05-23T00:43:11;20.57;;;18.47;;
5483;SDS011;2764;48.794;8.326;2023-05-23T00:44:13;21.20;;;19.00;;
5483;SDS011;2764;48.794;8.326;2023-05-23T00:45:15;21.00;;;17.90;;
5483;SDS011;2764;48.794;8.326;2023-05-23T00:46:17;20.07;;;17.97;;
5483;SDS011;2764;48.794;8.326;2023-05-23T00:47:19;20.60;;;16.93;;
5483;SDS011;2764;48.794;8.326;2023-05-23T00:48:20;22.83;;;17.53;;
5483;SDS011;2764;48.794;8.326;2023-05-23T00:49:22;23.63;;;18.50;;
5483;SDS011;2764;48.794;8.326;2023-05-23T00:50:24;20.57;;;18.07;;
5483;SDS011;2764;48.794;8.326;2023-05-23T00:51:29;19.50;;;16.50;;
5483;SDS011;2764;48.794;8.326;2023-05-23T00:52:32;19.80;;;17.60;;
5483;SDS011;2764;48.794;8.326;2023-05-23T00:53:33;22.43;;;18.60;;
5483;SDS011;2764;48.794;8.326;2023-05-23T00:54:35;19.70;;;17.67;;
5483;SDS011;2764;48.794;8.326;2023-05-23T00:55:38;24.90;;;18.10;;
5483;SDS011;2764;48.794;8.326;2023-05-23T00:56:40;25.17;;;17.60;;
5483;SDS011;2764;48.794;8.326;2023-05-23T00:57:44;20.43;;;18.30;;
5483;SDS011;2764;48.794;8.326;2023-05-23T00:58:45;20.50;;;17.63;;
5483;SDS011;2764;48.794;8.326;2023-05-23T00:59:47;20.20;;;18.00;;
5483;SDS011;2764;48.794;8.326;2023-05-23T01:00:49;18.87;;;17.03;;
5483;SDS011;2764;48.794;8.326;2023-05-23T01:01:55;19.53;;;17.50;;
5483;SDS011;2764;48.794;8.326;2023-05-23T01:02:57;21.27;;;18.77;;
5483;SDS011;2764;48.794;8.326;2023-05-23T01:03:59;21.40;;;19.17;;
5483;SDS011;2764;48.794;8.326;2023-05-23T01:05:03;22.27;;;18.83;;
5483;SDS011;2764;48.794;8.326;2023-05-23T01:06:05;21.60;;;18.10;;
5483;SDS011;2764;48.794;8.326;2023-05-23T01:07:07;20.87;;;18.67;;
5483;SDS011;2764;48.794;8.326;2023-05-23T01:08:10;20.83;;;18.70;;
5483;SDS011;2764;48.794;8.326;2023-05-23T01:09:13;20.63;;;18.53;;
5483;SDS011;2764;48.794;8.326;2023-05-23T01:10:15;21.10;;;17.80;;
5483;SDS011;2764;48.794;8.326;2023-05-23T01:11:35;21.87;;;18.33;;
5483;SDS011;2764;48.794;8.326;2023-05-23T01:12:50;21.10;;;18.60;;
5483;SDS011;2764;48.794;8.326;2023-05-23T01:13:56;22.80;;;17.57;;
5483;SDS011;2764;48.794;8.326;2023-05-23T01:15:03;19.63;;;17.50;;
5483;SDS011;2764;48.794;8.326;2023-05-23T01:16:10;19.07;;;17.10;;
5483;SDS011;2764;48.794;8.326;2023-05-23T01:17:18;19.53;;;17.47;;
5483;SDS011;2764;48.794;8.326;2023-05-23T01:21:15;21.40;;;17.00;;
5483;SDS011;2764;48.794;8.326;2023-05-23T01:24:41;20.43;;;18.30;;
5483;SDS011;2764;48.794;8.326;2023-05-23T01:27:22;21.63;;;17.50;;
5483;SDS011;2764;48.794;8.326;2023-05-23T01:28:28;20.20;;;18.00;;
5483;SDS011;2764;48.794;8.326;2023-05-23T01:29:33;20.90;;;17.97;;
5483;SDS011;2764;48.794;8.326;2023-05-23T01:30:36;20.23;;;17.70;;
5483;SDS011;2764;48.794;8.326;2023-05-23T01:31:41;20.10;;;17.90;;
5483;SDS011;2764;48.794;8.326;2023-05-23T01:32:43;18.63;;;16.83;;
5483;SDS011;2764;48.794;8.326;2023-05-23T01:33:45;22.97;;;17.30;;
5483;SDS011;2764;48.794;8.326;2023-05-23T01:34:52;19.37;;;17.30;;
5483;SDS011;2764;48.794;8.326;2023-05-23T01:35:55;23.70;;;18.10;;
5483;SDS011;2764;48.794;8.326;2023-05-23T01:36:58;37.83;;;17.57;;
5483;SDS011;2764;48.794;8.326;2023-05-23T01:37:59;19.13;;;17.23;;
5483;SDS011;2764;48.794;8.326;2023-05-23T01:39:01;19.07;;;17.13;;
5483;SDS011;2764;48.794;8.326;2023-05-23T01:40:03;20.00;;;18.00;;
5483;SDS011;2764;48.794;8.326;2023-05-23T01:41:05;21.87;;;17.70;;
5483;SDS011;2764;48.794;8.326;2023-05-23T01:42:07;20.43;;;17.90;;
5483;SDS011;2764;48.794;8.326;2023-05-23T01:43:08;24.07;;;17.57;;
5483;SDS011;2764;48.794;8.326;2023-05-23T01:44:11;19.37;;;17.23;;
5483;SDS011;2764;48.794;8.326;2023-05-23T01:45:14;22.40;;;18.40;;
5483;SDS011;2764;48.794;8.326;2023-05-23T01:46:16;22.00;;;18.77;;
5483;SDS011;2764;48.794;8.326;2023-05-23T01:47:18;22.30;;;19.77;;
5483;SDS011;2764;48.794;8.326;2023-05-23T01:48:21;23.80;;;18.53;;
5483;SDS011;2764;48.794;8.326;2023-05-23T01:49:23;23.90;;;20.10;;
5483;SDS011;2764;48.794;8.326;2023-05-23T01:50:25;23.47;;;19.60;;
5483;SDS011;2764;48.794;8.326;2023-05-23T01:51:27;22.83;;;19.40;;
5483;SDS011;2764;48.794;8.326;2023-05-23T01:52:29;24.97;;;18.10;;
5483;SDS011;2764;48.794;8.326;2023-05-23T01:53:30;26.37;;;20.33;;
5483;SDS011;2764;48.794;8.326;2023-05-23T01:54:32;18.87;;;16.87;;
5483;SDS011;2764;48.794;8.326;2023-05-23T01:55:35;20.40;;;17.80;;
5483;SDS011;2764;48.794;8.326;2023-05-23T01:56:37;22.07;;;19.80;;
5483;SDS011;2764;48.794;8.326;2023-05-23T01:57:39;22.10;;;19.70;;
5483;SDS011;2764;48.794;8.326;2023-05-23T01:58:41;20.87;;;18.60;;
5483;SDS011;2764;48.794;8.326;2023-05-23T01:59:43;20.77;;;18.57;;
5483;SDS011;2764;48.794;8.326;2023-05-23T02:00:44;21.20;;;18.10;;
5483;SDS011;2764;48.794;8.326;2023-05-23T02:01:46;19.93;;;17.83;;
5483;SDS011;2764;48.794;8.326;2023-05-23T02:02:48;18.30;;;16.50;;
5483;SDS011;2764;48.794;8.326;2023-05-23T02:03:50;18.57;;;16.77;;
5483;SDS011;2764;48.794;8.326;2023-05-23T02:04:51;20.80;;;18.30;;
5483;SDS011;2764;48.794;8.326;2023-05-23T02:05:54;18.50;;;16.60;;
5483;SDS011;2764;48.794;8.326;2023-05-23T02:06:56;18.50;;;16.53;;
5483;SDS011;2764;48.794;8.326;2023-05-23T02:07:57;18.93;;;16.93;;
5483;SDS011;2764;48.794;8.326;2023-05-23T02:08:59;18.93;;;16.47;;
5483;SDS011;2764;48.794;8.326;2023-05-23T02:10:01;18.37;;;16.57;;
5483;SDS011;2764;48.794;8.326;2023-05-23T02:11:03;21.37;;;18.40;;
5483;SDS011;2764;48.794;8.326;2023-05-23T02:12:05;19.40;;;17.47;;
5483;SDS011;2764;48.794;8.326;2023-05-23T02:13:07;19.03;;;16.97;;
5483;SDS011;2764;48.794;8.326;2023-05-23T02:14:09;20.43;;;18.43;;
5483;SDS011;2764;48.794;8.326;2023-05-23T02:15:11;26.33;;;18.03;;
5483;SDS011;2764;48.794;8.326;2023-05-23T02:16:12;19.53;;;17.50;;
5483;SDS011;2764;48.794;8.326;2023-05-23T02:17:14;20.50;;;18.37;;
5483;SDS011;2764;48.794;8.326;2023-05-23T02:18:17;23.53;;;17.40;;
5483;SDS011;2764;48.794;8.326;2023-05-23T02:19:19;17.33;;;15.63;;
5483;SDS011;2764;48.794;8.326;2023-05-23T02:20:20;20.03;;;17.80;;
5483;SDS011;2764;48.794;8.326;2023-05-23T02:21:22;18.80;;;16.90;;
5483;SDS011;2764;48.794;8.326;2023-05-23T02:22:24;20.33;;;17.90;;
5483;SDS011;2764;48.794;8.326;2023-05-23T02:23:28;18.77;;;16.97;;
5483;SDS011;2764;48.794;8.326;2023-05-23T02:24:30;18.90;;;17.00;;
5483;SDS011;2764;48.794;8.326;2023-05-23T02:25:32;19.60;;;17.50;;
5483;SDS011;2764;48.794;8.326;2023-05-23T02:26:34;19.33;;;16.90;;
5483;SDS011;2764;48.794;8.326;2023-05-23T02:27:35;21.90;;;18.10;;
5483;SDS011;2764;48.794;8.326;2023-05-23T02:28:37;17.90;;;15.80;;
5483;SDS011;2764;48.794;8.326;2023-05-23T02:29:39;18.07;;;16.17;;
5483;SDS011;2764;48.794;8.326;2023-05-23T02:30:40;20.13;;;17.67;;
5483;SDS011;2764;48.794;8.326;2023-05-23T02:31:42;19.30;;;17.40;;
5483;SDS011;2764;48.794;8.326;2023-05-23T02:32:44;21.53;;;17.00;;
5483;SDS011;2764;48.794;8.326;2023-05-23T02:33:46;18.13;;;16.20;;
5483;SDS011;2764;48.794;8.326;2023-05-23T02:34:48;18.53;;;16.63;;
5483;SDS011;2764;48.794;8.326;2023-05-23T02:35:50;19.20;;;17.17;;
5483;SDS011;2764;48.794;8.326;2023-05-23T02:36:52;19.27;;;17.03;;
5483;SDS011;2764;48.794;8.326;2023-05-23T02:37:54;19.13;;;17.23;;
5483;SDS011;2764;48.794;8.326;2023-05-23T02:38:55;20.07;;;18.07;;
5483;SDS011;2764;48.794;8.326;2023-05-23T02:39:57;19.23;;;16.77;;
5483;SDS011;2764;48.794;8.326;2023-05-23T02:40:59;22.00;;;19.70;;
5483;SDS011;2764;48.794;8.326;2023-05-23T02:42:01;19.30;;;17.40;;
5483;SDS011;2764;48.794;8.326;2023-05-23T02:43:03;19.73;;;17.63;;
5483;SDS011;2764;48.794;8.326;2023-05-23T02:44:04;19.10;;;17.27;;
5483;SDS011;2764;48.794;8.326;2023-05-23T02:45:06;21.03;;;18.83;;
5483;SDS011;2764;48.794;8.326;2023-05-23T02:46:08;20.67;;;18.43;;
5483;SDS011;2764;48.794;8.326;2023-05-23T02:47:10;19.60;;;17.73;;
5483;SDS011;2764;48.794;8.326;2023-05-23T02:48:11;18.80;;;16.90;;
5483;SDS011;2764;48.794;8.326;2023-05-23T02:49:13;19.77;;;17.00;;
5483;SDS011;2764;48.794;8.326;2023-05-23T02:50:15;19.90;;;17.97;;
5483;SDS011;2764;48.794;8.326;2023-05-23T02:51:16;20.07;;;18.00;;
5483;SDS011;2764;48.794;8.326;2023-05-23T02:52:18;20.17;;;18.10;;
5483;SDS011;2764;48.794;8.326;2023-05-23T02:53:20;19.13;;;17.07;;
5483;SDS011;2764;48.794;8.326;2023-05-23T02:54:22;18.83;;;16.50;;
5483;SDS011;2764;48.794;8.326;2023-05-23T02:55:24;19.40;;;17.60;;
5483;SDS011;2764;48.794;8.326;2023-05-23T02:56:26;21.03;;;19.00;;
5483;SDS011;2764;48.794;8.326;2023-05-23T02:57:28;20.77;;;18.60;;
5483;SDS011;2764;48.794;8.326;2023-05-23T02:58:29;20.83;;;16.60;;
5483;SDS011;2764;48.794;8.326;2023-05-23T02:59:32;20.77;;;18.53;;
5483;SDS011;2764;48.794;8.326;2023-05-23T03:00:34;19.57;;;17.60;;
5483;SDS011;2764;48.794;8.326;2023-05-23T03:01:36;18.10;;;16.27;;
5483;SDS011;2764;48.794;8.326;2023-05-23T03:02:38;19.67;;;17.57;;
5483;SDS011;2764;48.794;8.326;2023-05-23T03:03:40;22.83;;;19.67;;
5483;SDS011;2764;48.794;8.326;2023-05-23T03:04:42;22.30;;;20.10;;
5483;SDS011;2764;48.794;8.326;2023-05-23T03:05:44;21.37;;;19.07;;
5483;SDS011;2764;48.794;8.326;2023-05-23T03:06:45;21.00;;;18.77;;
5483;SDS011;2764;48.794;8.326;2023-05-23T03:07:48;20.83;;;18.60;;
5483;SDS011;2764;48.794;8.326;2023-05-23T03:08:49;20.03;;;17.93;;
5483;SDS011;2764;48.794;8.326;2023-05-23T03:09:51;20.17;;;17.90;;
5483;SDS011;2764;48.794;8.326;2023-05-23T03:10:53;21.20;;;19.07;;
5483;SDS011;2764;48.794;8.326;2023-05-23T03:11:54;23.40;;;18.13;;
5483;SDS011;2764;48.794;8.326;2023-05-23T03:12:56;22.13;;;18.53;;
5483;SDS011;2764;48.794;8.326;2023-05-23T03:13:58;28.23;;;18.60;;
5483;SDS011;2764;48.794;8.326;2023-05-23T03:14:59;20.00;;;17.90;;
5483;SDS011;2764;48.794;8.326;2023-05-23T03:16:01;21.37;;;18.43;;
5483;SDS011;2764;48.794;8.326;2023-05-23T03:17:03;21.90;;;19.57;;
5483;SDS011;2764;48.794;8.326;2023-05-23T03:18:05;21.13;;;18.90;;
5483;SDS011;2764;48.794;8.326;2023-05-23T03:19:06;21.03;;;18.90;;
5483;SDS011;2764;48.794;8.326;2023-05-23T03:20:08;21.93;;;19.77;;
5483;SDS011;2764;48.794;8.326;2023-05-23T03:21:10;27.33;;;18.37;;
5483;SDS011;2764;48.794;8.326;2023-05-23T03:22:11;19.77;;;17.70;;
5483;SDS011;2764;48.794;8.326;2023-05-23T03:23:13;21.73;;;19.43;;
5483;SDS011;2764;48.794;8.326;2023-05-23T03:24:15;21.50;;;18.10;;
5483;SDS011;2764;48.794;8.326;2023-05-23T03:25:16;23.50;;;19.77;;
5483;SDS011;2764;48.794;8.326;2023-05-23T03:26:18;20.10;;;17.10;;
5483;SDS011;2764;48.794;8.326;2023-05-23T03:27:20;20.67;;;18.03;;
5483;SDS011;2764;48.794;8.326;2023-05-23T03:28:21;22.47;;;19.27;;
5483;SDS011;2764;48.794;8.326;2023-05-23T03:29:23;21.70;;;19.40;;
5483;SDS011;2764;48.794;8.326;2023-05-23T03:30:24;21.87;;;19.57;;
5483;SDS011;2764;48.794;8.326;2023-05-23T03:31:26;21.23;;;19.17;;
5483;SDS011;2764;48.794;8.326;2023-05-23T03:32:28;27.03;;;18.00;;
5483;SDS011;2764;48.794;8.326;2023-05-23T03:33:29;20.13;;;18.00;;
5483;SDS011;2764;48.794;8.326;2023-05-23T03:34:31;21.47;;;19.10;;
5483;SDS011;2764;48.794;8.326;2023-05-23T03:35:33;23.33;;;19.03;;
5483;SDS011;2764;48.794;8.326;2023-05-23T03:36:34;19.57;;;17.57;;
5483;SDS011;2764;48.794;8.326;2023-05-23T03:37:39;20.50;;;18.40;;
5483;SDS011;2764;48.794;8.326;2023-05-23T03:38:41;22.37;;;19.97;;
5483;SDS011;2764;48.794;8.326;2023-05-23T03:39:42;20.70;;;18.40;;
5483;SDS011;2764;48.794;8.326;2023-05-23T03:40:44;20.83;;;18.63;;
5483;SDS011;2764;48.794;8.326;2023-05-23T03:41:46;22.40;;;19.37;;
5483;SDS011;2764;48.794;8.326;2023-05-23T03:43:00;24.17;;;18.60;;
5483;SDS011;2764;48.794;8.326;2023-05-23T03:44:02;20.20;;;16.87;;
5483;SDS011;2764;48.794;8.326;2023-05-23T03:45:04;21.80;;;19.60;;
5483;SDS011;2764;48.794;8.326;2023-05-23T03:46:06;19.77;;;17.77;;
5483;SDS011;2764;48.794;8.326;2023-05-23T03:47:07;20.30;;;18.10;;
5483;SDS011;2764;48.794;8.326;2023-05-23T03:48:09;22.10;;;19.10;;
5483;SDS011;2764;48.794;8.326;2023-05-23T03:49:11;20.10;;;18.03;;
5483;SDS011;2764;48.794;8.326;2023-05-23T03:50:12;21.07;;;18.87;;
5483;SDS011;2764;48.794;8.326;2023-05-23T03:51:14;21.07;;;18.87;;
5483;SDS011;2764;48.794;8.326;2023-05-23T03:52:15;19.30;;;17.40;;
5483;SDS011;2764;48.794;8.326;2023-05-23T03:53:17;19.40;;;17.40;;
5483;SDS011;2764;48.794;8.326;2023-05-23T03:54:18;20.80;;;17.30;;
5483;SDS011;2764;48.794;8.326;2023-05-23T03:55:20;19.50;;;17.37;;
5483;SDS011;2764;48.794;8.326;2023-05-23T03:56:22;19.13;;;17.17;;
5483;SDS011;2764;48.794;8.326;2023-05-23T03:57:24;20.33;;;18.27;;
5483;SDS011;2764;48.794;8.326;2023-05-23T03:58:25;21.30;;;17.60;;
5483;SDS011;2764;48.794;8.326;2023-05-23T03:59:27;19.77;;;17.77;;
5483;SDS011;2764;48.794;8.326;2023-05-23T04:00:29;20.50;;;18.30;;
5483;SDS011;2764;48.794;8.326;2023-05-23T04:01:30;22.30;;;19.00;;
5483;SDS011;2764;48.794;8.326;2023-05-23T04:02:32;31.00;;;20.07;;
5483;SDS011;2764;48.794;8.326;2023-05-23T04:03:34;21.37;;;18.73;;
5483;SDS011;2764;48.794;8.326;2023-05-23T04:04:36;22.40;;;20.00;;
5483;SDS011;2764;48.794;8.326;2023-05-23T04:05:38;24.27;;;18.70;;
5483;SDS011;2764;48.794;8.326;2023-05-23T04:06:39;25.93;;;19.07;;
5483;SDS011;2764;48.794;8.326;2023-05-23T04:07:41;20.73;;;18.63;;
5483;SDS011;2764;48.794;8.326;2023-05-23T04:08:43;19.27;;;16.47;;
5483;SDS011;2764;48.794;8.326;2023-05-23T04:09:45;19.50;;;17.57;;
5483;SDS011;2764;48.794;8.326;2023-05-23T04:10:47;25.70;;;19.30;;
5483;SDS011;2764;48.794;8.326;2023-05-23T04:11:48;28.37;;;19.23;;
5483;SDS011;2764;48.794;8.326;2023-05-23T04:12:50;22.33;;;19.97;;
5483;SDS011;2764;48.794;8.326;2023-05-23T04:13:52;20.30;;;18.27;;
5483;SDS011;2764;48.794;8.326;2023-05-23T04:14:53;40.67;;;19.40;;
5483;SDS011;2764;48.794;8.326;2023-05-23T04:15:55;19.70;;;17.80;;
5483;SDS011;2764;48.794;8.326;2023-05-23T04:16:57;21.87;;;19.57;;
5483;SDS011;2764;48.794;8.326;2023-05-23T04:17:59;21.67;;;19.30;;
5483;SDS011;2764;48.794;8.326;2023-05-23T04:19:01;27.83;;;19.87;;
5483;SDS011;2764;48.794;8.326;2023-05-23T04:20:06;21.00;;;18.90;;
5483;SDS011;2764;48.794;8.326;2023-05-23T04:21:08;23.43;;;20.77;;
5483;SDS011;2764;48.794;8.326;2023-05-23T04:22:09;23.00;;;20.07;;
5483;SDS011;2764;48.794;8.326;2023-05-23T04:23:11;22.53;;;20.00;;
5483;SDS011;2764;48.794;8.326;2023-05-23T04:24:13;21.97;;;19.67;;
5483;SDS011;2764;48.794;8.326;2023-05-23T04:25:14;24.50;;;18.47;;
5483;SDS011;2764;48.794;8.326;2023-05-23T04:26:19;21.73;;;19.57;;
5483;SDS011;2764;48.794;8.326;2023-05-23T04:27:20;22.57;;;20.17;;
5483;SDS011;2764;48.794;8.326;2023-05-23T04:28:22;20.63;;;18.37;;
5483;SDS011;2764;48.794;8.326;2023-05-23T04:29:24;24.40;;;19.97;;
5483;SDS011;2764;48.794;8.326;2023-05-23T04:30:26;25.60;;;19.67;;
5483;SDS011;2764;48.794;8.326;2023-05-23T04:31:31;22.43;;;20.13;;
5483;SDS011;2764;48.794;8.326;2023-05-23T04:32:34;23.90;;;20.80;;
5483;SDS011;2764;48.794;8.326;2023-05-23T04:33:36;27.63;;;20.43;;
5483;SDS011;2764;48.794;8.326;2023-05-23T04:34:37;23.67;;;19.60;;
5483;SDS011;2764;48.794;8.326;2023-05-23T04:35:41;21.57;;;19.47;;
5483;SDS011;2764;48.794;8.326;2023-05-23T04:36:44;22.10;;;19.47;;
5483;SDS011;2764;48.794;8.326;2023-05-23T04:37:45;23.23;;;20.93;;
5483;SDS011;2764;48.794;8.326;2023-05-23T04:38:47;28.00;;;21.33;;
5483;SDS011;2764;48.794;8.326;2023-05-23T04:39:48;23.67;;;20.90;;
5483;SDS011;2764;48.794;8.326;2023-05-23T04:40:50;30.53;;;20.57;;
5483;SDS011;2764;48.794;8.326;2023-05-23T04:41:53;21.77;;;19.43;;
5483;SDS011;2764;48.794;8.326;2023-05-23T04:42:54;21.27;;;18.90;;
5483;SDS011;2764;48.794;8.326;2023-05-23T04:43:57;22.77;;;20.53;;
5483;SDS011;2764;48.794;8.326;2023-05-23T04:44:59;22.97;;;19.80;;
5483;SDS011;2764;48.794;8.326;2023-05-23T04:46:02;22.30;;;19.90;;
5483;SDS011;2764;48.794;8.326;2023-05-23T04:47:04;25.60;;;21.07;;
5483;SDS011;2764;48.794;8.326;2023-05-23T04:48:09;21.77;;;19.50;;
5483;SDS011;2764;48.794;8.326;2023-05-23T04:49:13;24.03;;;20.43;;
5483;SDS011;2764;48.794;8.326;2023-05-23T04:50:15;21.00;;;18.77;;
5483;SDS011;2764;48.794;8.326;2023-05-23T04:51:17;22.80;;;20.40;;
5483;SDS011;2764;48.794;8.326;2023-05-23T04:52:18;20.37;;;18.27;;
5483;SDS011;2764;48.794;8.326;2023-05-23T04:53:21;23.37;;;20.80;;
5483;SDS011;2764;48.794;8.326;2023-05-23T04:54:23;22.57;;;20.17;;
5483;SDS011;2764;48.794;8.326;2023-05-23T04:55:24;23.30;;;20.83;;
5483;SDS011;2764;48.794;8.326;2023-05-23T04:56:26;25.90;;;22.07;;
5483;SDS011;2764;48.794;8.326;2023-05-23T04:57:28;26.00;;;21.30;;
5483;SDS011;2764;48.794;8.326;2023-05-23T04:58:30;23.50;;;21.10;;
5483;SDS011;2764;48.794;8.326;2023-05-23T04:59:32;27.90;;;22.10;;
5483;SDS011;2764;48.794;8.326;2023-05-23T05:00:34;22.97;;;20.60;;
5483;SDS011;2764;48.794;8.326;2023-05-23T05:01:36;32.33;;;21.83;;
5483;SDS011;2764;48.794;8.326;2023-05-23T05:02:41;30.43;;;24.30;;
5483;SDS011;2764;48.794;8.326;2023-05-23T05:03:44;25.07;;;22.37;;
5483;SDS011;2764;48.794;8.326;2023-05-23T05:04:46;29.10;;;24.60;;
5483;SDS011;2764;48.794;8.326;2023-05-23T05:05:47;24.30;;;20.77;;
5483;SDS011;2764;48.794;8.326;2023-05-23T05:06:49;28.20;;;21.47;;
5483;SDS011;2764;48.794;8.326;2023-05-23T05:07:50;24.40;;;21.30;;
5483;SDS011;2764;48.794;8.326;2023-05-23T05:08:52;26.93;;;21.77;;
5483;SDS011;2764;48.794;8.326;2023-05-23T05:09:54;25.80;;;22.47;;
5483;SDS011;2764;48.794;8.326;2023-05-23T05:10:57;24.97;;;22.33;;
5483;SDS011;2764;48.794;8.326;2023-05-23T05:11:59;50.37;;;23.00;;
5483;SDS011;2764;48.794;8.326;2023-05-23T05:13:01;29.17;;;23.67;;
5483;SDS011;2764;48.794;8.326;2023-05-23T05:14:02;34.80;;;24.50;;
5483;SDS011;2764;48.794;8.326;2023-05-23T05:15:04;27.20;;;24.17;;
5483;SDS011;2764;48.794;8.326;2023-05-23T05:16:06;30.17;;;23.13;;
5483;SDS011;2764;48.794;8.326;2023-05-23T05:17:08;27.70;;;23.33;;
5483;SDS011;2764;48.794;8.326;2023-05-23T05:18:09;31.67;;;25.13;;
5483;SDS011;2764;48.794;8.326;2023-05-23T05:19:12;33.50;;;27.93;;
5483;SDS011;2764;48.794;8.326;2023-05-23T05:20:14;36.50;;;30.03;;
5483;SDS011;2764;48.794;8.326;2023-05-23T05:21:16;42.13;;;31.90;;
5483;SDS011;2764;48.794;8.326;2023-05-23T05:22:18;42.83;;;32.13;;
5483;SDS011;2764;48.794;8.326;2023-05-23T05:23:20;41.03;;;32.53;;
5483;SDS011;2764;48.794;8.326;2023-05-23T05:24:24;43.43;;;32.93;;
5483;SDS011;2764;48.794;8.326;2023-05-23T05:25:26;45.37;;;35.33;;
5483;SDS011;2764;48.794;8.326;2023-05-23T05:26:32;36.00;;;30.93;;
5483;SDS011;2764;48.794;8.326;2023-05-23T05:27:33;42.10;;;30.60;;
5483;SDS011;2764;48.794;8.326;2023-05-23T05:28:38;37.17;;;31.83;;
5483;SDS011;2764;48.794;8.326;2023-05-23T05:29:40;40.50;;;31.00;;
5483;SDS011;2764;48.794;8.326;2023-05-23T05:30:42;36.37;;;30.00;;
5483;SDS011;2764;48.794;8.326;2023-05-23T05:31:46;45.80;;;34.30;;
5483;SDS011;2764;48.794;8.326;2023-05-23T05:32:48;40.57;;;32.20;;
5483;SDS011;2764;48.794;8.326;2023-05-23T05:33:50;38.03;;;30.50;;
5483;SDS011;2764;48.794;8.326;2023-05-23T05:34:52;36.50;;;29.93;;
5483;SDS011;2764;48.794;8.326;2023-05-23T05:35:53;38.90;;;29.93;;
5483;SDS011;2764;48.794;8.326;2023-05-23T05:36:55;39.23;;;31.07;;
5483;SDS011;2764;48.794;8.326;2023-05-23T05:37:57;39.00;;;30.47;;
5483;SDS011;2764;48.794;8.326;2023-05-23T05:38:59;37.07;;;31.00;;
5483;SDS011;2764;48.794;8.326;2023-05-23T05:40:01;37.60;;;32.40;;
5483;SDS011;2764;48.794;8.326;2023-05-23T05:41:08;44.27;;;31.30;;
5483;SDS011;2764;48.794;8.326;2023-05-23T05:42:10;43.47;;;33.03;;
5483;SDS011;2764;48.794;8.326;2023-05-23T05:43:11;35.40;;;30.67;;
5483;SDS011;2764;48.794;8.326;2023-05-23T05:44:13;36.57;;;29.67;;
5483;SDS011;2764;48.794;8.326;2023-05-23T05:45:15;38.07;;;32.00;;
5483;SDS011;2764;48.794;8.326;2023-05-23T05:46:17;39.17;;;30.87;;
5483;SDS011;2764;48.794;8.326;2023-05-23T05:47:18;35.07;;;28.03;;
5483;SDS011;2764;48.794;8.326;2023-05-23T05:48:20;37.33;;;30.17;;
5483;SDS011;2764;48.794;8.326;2023-05-23T05:49:22;41.50;;;30.70;;
5483;SDS011;2764;48.794;8.326;2023-05-23T05:50:23;43.30;;;28.70;;
5483;SDS011;2764;48.794;8.326;2023-05-23T05:51:25;35.97;;;30.53;;
5483;SDS011;2764;48.794;8.326;2023-05-23T05:52:26;40.73;;;32.63;;
5483;SDS011;2764;48.794;8.326;2023-05-23T05:53:28;35.40;;;28.50;;
5483;SDS011;2764;48.794;8.326;2023-05-23T05:54:29;35.97;;;32.17;;
5483;SDS011;2764;48.794;8.326;2023-05-23T05:55:31;39.07;;;33.07;;
5483;SDS011;2764;48.794;8.326;2023-05-23T05:56:33;43.87;;;33.77;;
5483;SDS011;2764;48.794;8.326;2023-05-23T05:57:34;42.37;;;33.40;;
5483;SDS011;2764;48.794;8.326;2023-05-23T05:58:39;39.97;;;31.60;;
5483;SDS011;2764;48.794;8.326;2023-05-23T05:59:40;35.20;;;27.33;;
5483;SDS011;2764;48.794;8.326;2023-05-23T06:00:42;36.20;;;29.07;;
5483;SDS011;2764;48.794;8.326;2023-05-23T06:01:44;35.07;;;30.20;;
5483;SDS011;2764;48.794;8.326;2023-05-23T06:02:45;40.43;;;30.40;;
5483;SDS011;2764;48.794;8.326;2023-05-23T06:03:57;40.80;;;30.83;;
5483;SDS011;2764;48.794;8.326;2023-05-23T06:05:00;42.23;;;31.53;;
5483;SDS011;2764;48.794;8.326;2023-05-23T06:06:01;37.03;;;29.93;;
5483;SDS011;2764;48.794;8.326;2023-05-23T06:07:03;36.53;;;29.10;;
5483;SDS011;2764;48.794;8.326;2023-05-23T06:08:05;35.90;;;28.83;;
5483;SDS011;2764;48.794;8.326;2023-05-23T06:09:07;38.77;;;30.57;;
5483;SDS011;2764;48.794;8.326;2023-05-23T06:10:08;43.70;;;30.17;;
5483;SDS011;2764;48.794;8.326;2023-05-23T06:11:13;37.03;;;30.10;;
5483;SDS011;2764;48.794;8.326;2023-05-23T06:12:14;36.93;;;30.30;;
5483;SDS011;2764;48.794;8.326;2023-05-23T06:13:16;37.40;;;27.77;;
5483;SDS011;2764;48.794;8.326;2023-05-23T06:14:18;32.73;;;28.67;;
5483;SDS011;2764;48.794;8.326;2023-05-23T06:15:20;41.10;;;27.90;;
5483;SDS011;2764;48.794;8.326;2023-05-23T06:16:21;32.47;;;25.97;;
5483;SDS011;2764;48.794;8.326;2023-05-23T06:17:23;35.97;;;27.60;;
5483;SDS011;2764;48.794;8.326;2023-05-23T06:18:25;31.80;;;25.60;;
5483;SDS011;2764;48.794;8.326;2023-05-23T06:19:27;29.57;;;26.33;;
5483;SDS011;2764;48.794;8.326;2023-05-23T06:20:28;30.60;;;24.20;;
5483;SDS011;2764;48.794;8.326;2023-05-23T06:21:30;40.63;;;26.03;;
5483;SDS011;2764;48.794;8.326;2023-05-23T06:22:32;31.63;;;24.93;;